Time;durP1;ratioP1;P1;durP2;ratioP2;P2;SDS_P1;SDS_P2;PMS_P1;PMS_P2;Temp;Humidity;BMP_temperature;BMP_pressure;BME280_temperature;BME280_humidity;BME280_pressure;Samples;Min_cycle;Max_cycle;Signal;HPM_P1;HPM_P2
2023/12/02 00:01:26;;;;;;;24.58;13.27;;;;;;;;;;5020807;28;20045;-72
2023/12/02 00:03:52;;;;;;;23.33;14.43;;;;;;;;;;5024735;28;20057;-73
2023/12/02 00:06:18;;;;;;;22.75;12.98;;;;;;;;;;5014306;28;20080;-73
2023/12/02 00:08:44;;;;;;;23.02;13.57;;;;;;;;;;5011893;28;20046;-73
2023/12/02 00:11:11;;;;;;;27.60;14.15;;;;;;;;;;5020318;28;20367;-73
2023/12/02 00:13:37;;;;;;;21.17;12.35;;;;;;;;;;5029479;28;20060;-73
2023/12/02 00:16:05;;;;;;;24.27;13.60;;;0.30;99.90;;;;;;5029456;28;20087;-73
2023/12/02 00:18:31;;;;;;;23.15;12.88;;;;;;;;;;4995469;28;20104;-73
2023/12/02 00:20:57;;;;;;;22.40;12.98;;;;;;;;;;5022167;28;20104;-73
2023/12/02 00:23:23;;;;;;;28.45;13.73;;;;;;;;;;5012699;28;20137;-73
2023/12/02 00:25:49;;;;;;;23.35;13.73;;;;;;;;;;5012862;28;20144;-73
2023/12/02 00:28:15;;;;;;;24.05;13.05;;;;;;;;;;5012620;28;20041;-73
2023/12/02 00:30:41;;;;;;;23.65;13.82;;;;;;;;;;5016805;28;20037;-73
2023/12/02 00:33:08;;;;;;;24.27;13.68;;;;;;;;;;5016865;28;20042;-73
2023/12/02 00:35:34;;;;;;;25.67;13.90;;;;;;;;;;5028227;28;20044;-73
2023/12/02 00:38:00;;;;;;;23.42;13.65;;;;;;;;;;5016066;28;20056;-72
2023/12/02 00:40:26;;;;;;;24.17;13.38;;;;;;;;;;5033313;28;20401;-72
2023/12/02 00:42:52;;;;;;;25.05;13.60;;;;;;;;;;5013742;28;20037;-73
2023/12/02 00:45:18;;;;;;;23.35;12.70;;;;;;;;;;5008728;28;20046;-73
2023/12/02 00:47:44;;;;;;;23.40;12.75;;;;;;;;;;5015334;28;20053;-72
2023/12/02 00:50:11;;;;;;;23.63;13.20;;;;;;;;;;5014976;28;20494;-72
2023/12/02 00:52:37;;;;;;;25.30;13.93;;;;;;;;;;5020993;28;20050;-72
2023/12/02 00:55:03;;;;;;;24.00;13.63;;;;;;;;;;5000438;28;20553;-72
2023/12/02 00:57:29;;;;;;;24.67;13.50;;;;;;;;;;5004623;28;20041;-72
2023/12/02 00:59:55;;;;;;;23.92;13.68;;;;;;;;;;5026343;28;20052;-73
2023/12/02 01:02:21;;;;;;;25.33;14.50;;;;;;;;;;5017560;28;20494;-73
2023/12/02 01:04:47;;;;;;;24.25;13.68;;;;;;;;;;5002195;28;20050;-73
2023/12/02 01:07:13;;;;;;;24.50;13.77;;;;;;;;;;5024457;28;20490;-73
2023/12/02 01:09:39;;;;;;;23.70;13.10;;;;;;;;;;5015235;28;20064;-73
2023/12/02 01:12:06;;;;;;;25.35;14.30;;;;;;;;;;5026687;28;20045;-73
2023/12/02 01:14:32;;;;;;;23.60;13.80;;;;;;;;;;5032951;28;20405;-73
2023/12/02 01:16:58;;;;;;;24.10;13.52;;;;;;;;;;5015982;28;20120;-73
2023/12/02 01:19:24;;;;;;;22.55;12.77;;;;;;;;;;5002790;28;20092;-73
2023/12/02 01:21:50;;;;;;;22.67;13.30;;;;;;;;;;5032429;28;20040;-73
2023/12/02 01:24:16;;;;;;;23.05;12.93;;;;;;;;;;5000554;28;20486;-72
2023/12/02 01:26:43;;;;;;;24.05;13.65;;;;;;;;;;5014418;28;20049;-73
2023/12/02 01:29:09;;;;;;;24.10;13.38;;;;;;;;;;4999257;28;20084;-73
2023/12/02 01:31:35;;;;;;;27.10;14.48;;;;;;;;;;5019029;28;20045;-72
2023/12/02 01:34:01;;;;;;;26.90;14.77;;;;;;;;;;5020812;28;20049;-73
2023/12/02 01:36:27;;;;;;;23.98;13.13;;;;;;;;;;5030058;28;20030;-73
2023/12/02 01:38:55;;;;;;;25.52;13.75;;;;;;;;;;5025599;28;20498;-73
2023/12/02 01:41:21;;;;;;;26.73;14.00;;;;;;;;;;5014461;28;20108;-73
2023/12/02 01:43:48;;;;;;;26.02;14.05;;;;;;;;;;5001546;28;20044;-73
2023/12/02 01:46:17;;;;;;;22.85;13.23;;;;;;;;;;5015640;28;20087;-72
2023/12/02 01:48:43;;;;;;;24.13;13.25;;;;;;;;;;5022312;28;20041;-73
2023/12/02 01:51:10;;;;;;;25.38;13.65;;;;;;;;;;4997699;28;20156;-73
2023/12/02 01:53:38;;;;;;;24.92;13.30;;;0.70;99.90;;;;;;5019352;28;20037;-73
2023/12/02 01:56:04;;;;;;;25.25;13.27;;;;;;;;;;5031936;28;20037;-73
2023/12/02 01:58:31;;;;;;;25.35;14.50;;;;;;;;;;5030739;28;20072;-73
2023/12/02 02:00:57;;;;;;;24.67;14.15;;;;;;;;;;5028904;28;20045;-73
2023/12/02 02:03:23;;;;;;;25.63;14.73;;;;;;;;;;5023323;28;20060;-73
2023/12/02 02:05:49;;;;;;;23.73;13.63;;;;;;;;;;4997655;28;20069;-73
2023/12/02 02:08:15;;;;;;;22.67;13.65;;;;;;;;;;4997217;28;20052;-73
2023/12/02 02:10:41;;;;;;;24.52;14.32;;;;;;;;;;5021315;28;20033;-73
2023/12/02 02:13:07;;;;;;;25.85;14.55;;;;;;;;;;5025170;28;20042;-73
2023/12/02 02:15:34;;;;;;;23.27;13.18;;;;;;;;;;5015403;28;20052;-74
2023/12/02 02:18:00;;;;;;;24.08;14.02;;;;;;;;;;5000303;28;20049;-73
2023/12/02 02:20:26;;;;;;;26.35;13.70;;;;;;;;;;5003951;28;20084;-72
2023/12/02 02:22:52;;;;;;;24.67;14.07;;;;;;;;;;5013312;28;20044;-72
2023/12/02 02:25:18;;;;;;;24.05;13.65;;;;;;;;;;4998015;28;20046;-73
2023/12/02 02:27:44;;;;;;;23.02;14.10;;;;;;;;;;5029985;28;20397;-73
2023/12/02 02:30:10;;;;;;;23.90;13.55;;;;;;;;;;5029502;28;20129;-73
2023/12/02 02:32:36;;;;;;;24.55;14.88;;;;;;;;;;5014027;28;20479;-73
2023/12/02 02:35:03;;;;;;;25.63;13.52;;;;;;;;;;5014331;28;20394;-73
2023/12/02 02:37:29;;;;;;;22.98;12.77;;;;;;;;;;5027980;28;20045;-73
2023/12/02 02:39:55;;;;;;;24.67;13.65;;;;;;;;;;5031106;28;20128;-73
2023/12/02 02:42:21;;;;;;;24.95;13.00;;;;;;;;;;5030030;28;20493;-72
2023/12/02 02:44:47;;;;;;;24.58;14.25;;;;;;;;;;5029306;28;20120;-72
2023/12/02 02:47:13;;;;;;;26.25;14.35;;;;;;;;;;5004364;28;20041;-73
2023/12/02 02:49:39;;;;;;;24.35;13.90;;;;;;;;;;5028648;28;20481;-73
2023/12/02 02:52:05;;;;;;;24.80;14.15;;;;;;;;;;5020435;28;20445;-72
2023/12/02 02:54:31;;;;;;;24.80;13.32;;;;;;;;;;5014520;28;20045;-73
2023/12/02 02:56:58;;;;;;;25.73;13.98;;;;;;;;;;5021676;28;20117;-72
2023/12/02 02:59:24;;;;;;;25.85;14.18;;;;;;;;;;5014077;28;20038;-73
2023/12/02 03:01:50;;;;;;;25.25;13.68;;;;;;;;;;5012866;28;20046;-73
2023/12/02 03:04:16;;;;;;;27.00;13.40;;;;;;;;;;5016575;28;20037;-73
2023/12/02 03:06:42;;;;;;;21.02;12.73;;;;;;;;;;5029895;28;20052;-72
2023/12/02 03:09:11;;;;;;;24.15;13.73;;;;;;;;;;5013933;28;20034;-73
2023/12/02 03:11:37;;;;;;;26.35;14.20;;;;;;;;;;5020921;28;20041;-73
2023/12/02 03:14:03;;;;;;;24.00;13.63;;;;;;;;;;4998017;28;20073;-73
2023/12/02 03:16:29;;;;;;;26.45;14.00;;;;;;;;;;5014505;28;20041;-73
2023/12/02 03:18:55;;;;;;;24.60;13.30;;;;;;;;;;5012716;28;20060;-73
2023/12/02 03:21:21;;;;;;;22.70;13.55;;;;;;;;;;4986059;28;20039;-72
2023/12/02 03:23:48;;;;;;;25.67;13.60;;;;;;;;;;5026214;28;20049;-72
2023/12/02 03:26:14;;;;;;;23.42;13.50;;;;;;;;;;5026209;28;20393;-72
2023/12/02 03:28:40;;;;;;;22.33;12.73;;;;;;;;;;5029124;28;20037;-73
2023/12/02 03:31:07;;;;;;;21.95;12.73;;;;;;;;;;5028473;28;20120;-73
2023/12/02 03:33:33;;;;;;;24.10;13.00;;;;;;;;;;5021983;28;20061;-73
2023/12/02 03:36:00;;;;;;;25.80;13.48;;;;;;;;;;5012219;28;20359;-73
2023/12/02 03:38:27;;;;;;;26.98;15.40;;;;;;;;;;5012129;28;20058;-73
2023/12/02 03:40:53;;;;;;;24.70;13.55;;;;;;;;;;4985268;28;20038;-73
2023/12/02 03:43:19;;;;;;;26.00;13.68;;;;;;;;;;5004610;28;20123;-72
2023/12/02 03:45:46;;;;;;;25.48;13.60;;;;;;;;;;5022831;28;20045;-73
2023/12/02 03:48:12;;;;;;;23.88;14.57;;;;;;;;;;5012278;28;20398;-72
2023/12/02 03:50:38;;;;;;;26.20;14.15;;;;;;;;;;5012114;28;20136;-73
2023/12/02 03:53:04;;;;;;;24.02;13.68;;;;;;;;;;5021944;28;20044;-73
2023/12/02 03:55:30;;;;;;;21.77;12.73;;;;;;;;;;5011754;28;20475;-73
2023/12/02 03:57:56;;;;;;;26.52;13.88;;;;;;;;;;4979644;28;20056;-73
2023/12/02 04:00:23;;;;;;;23.20;13.00;;;;;;;;;;5012077;28;20048;-73
2023/12/02 04:02:50;;;;;;;24.45;13.27;;;;;;;;;;4980584;28;20053;-73
2023/12/02 04:05:16;;;;;;;25.88;13.23;;;;;;;;;;5025964;28;20060;-73
2023/12/02 04:07:42;;;;;;;25.20;14.10;;;;;;;;;;5001011;28;20041;-73
2023/12/02 04:10:09;;;;;;;24.70;13.90;;;;;;;;;;5021330;28;20136;-72
2023/12/02 04:12:35;;;;;;;25.48;13.75;;;;;;;;;;5020844;28;20042;-72
2023/12/02 04:15:01;;;;;;;23.23;13.95;;;;;;;;;;4999925;28;20148;-72
2023/12/02 04:17:27;;;;;;;25.98;14.07;;;;;;;;;;5020430;28;20041;-72
2023/12/02 04:19:53;;;;;;;22.55;12.50;;;;;;;;;;5022042;28;20037;-73
2023/12/02 04:22:19;;;;;;;22.63;13.68;;;;;;;;;;5002138;28;20041;-73
2023/12/02 04:24:49;;;;;;;26.73;13.95;;;;;;;;;;5028599;28;20129;-73
2023/12/02 04:27:15;;;;;;;22.77;13.23;;;;;;;;;;5026511;28;20053;-73
2023/12/02 04:29:42;;;;;;;25.33;14.27;;;;;;;;;;5009176;28;20044;-73
2023/12/02 04:32:11;;;;;;;26.70;14.00;;;;;;;;;;5033070;28;20432;-73
2023/12/02 04:34:38;;;;;;;25.17;15.05;;;;;;;;;;5031956;28;20069;-73
2023/12/02 04:37:05;;;;;;;25.88;13.73;;;;;;;;;;5017730;28;20045;-73
2023/12/02 04:39:32;;;;;;;24.13;14.23;;;;;;;;;;5016237;28;20109;-73
2023/12/02 04:41:58;;;;;;;23.70;12.93;;;;;;;;;;5015337;28;20081;-73
2023/12/02 04:44:24;;;;;;;27.65;13.43;;;;;;;;;;5016541;28;20038;-73
2023/12/02 04:46:51;;;;;;;24.35;13.93;;;;;;;;;;5015536;28;20073;-73
2023/12/02 04:49:17;;;;;;;24.05;13.15;;;;;;;;;;5014973;28;20046;-73
2023/12/02 04:51:43;;;;;;;24.58;13.02;;;;;;;;;;5022674;28;20034;-73
2023/12/02 04:54:10;;;;;;;24.30;12.50;;;;;;;;;;5016780;28;20030;-73
2023/12/02 04:56:36;;;;;;;23.60;13.88;;;;;;;;;;5028594;28;20053;-73
2023/12/02 04:59:03;;;;;;;26.15;13.50;;;;;;;;;;5030121;28;20030;-73
2023/12/02 05:01:29;;;;;;;24.27;13.68;;;;;;;;;;5015132;28;20049;-73
2023/12/02 05:03:55;;;;;;;24.35;14.00;;;;;;;;;;4998597;28;20508;-73
2023/12/02 05:06:21;;;;;;;25.67;14.38;;;;;;;;;;5001001;28;20037;-73
2023/12/02 05:08:47;;;;;;;24.60;13.00;;;;;;;;;;5015673;28;20044;-73
2023/12/02 05:11:20;;;;;;;26.70;13.75;;;0.60;99.90;;;;;;5014654;28;20045;-73
2023/12/02 05:13:52;;;;;;;26.38;14.57;;;;;;;;;;5014908;28;20374;-73
2023/12/02 05:16:19;;;;;;;;;;;;;;;;;;4997893;28;20386;-73
2023/12/02 05:18:46;;;;;;;20.38;12.43;;;;;;;;;;5001189;28;19992;-73
2023/12/02 05:21:12;;;;;;;24.23;13.50;;;;;;;;;;4998258;28;20049;-73
2023/12/02 05:23:40;;;;;;;24.98;14.32;;;;;;;;;;5030551;28;20045;-70
2023/12/02 05:26:07;;;;;;;24.27;13.32;;;;;;;;;;5031498;28;20029;-70
2023/12/02 05:28:33;;;;;;;25.85;13.15;;;;;;;;;;5012121;28;20037;-70
2023/12/02 05:30:59;;;;;;;22.23;13.30;;;;;;;;;;5033417;28;20497;-70
2023/12/02 05:33:25;;;;;;;29.23;14.73;;;;;;;;;;5030384;28;20045;-70
2023/12/02 05:35:51;;;;;;;25.48;13.45;;;;;;;;;;5032033;28;20091;-70
2023/12/02 05:38:17;;;;;;;24.42;12.35;;;;;;;;;;5021065;28;20084;-70
2023/12/02 05:40:43;;;;;;;27.88;14.90;;;;;;;;;;5025542;28;20546;-70
2023/12/02 05:43:09;;;;;;;24.23;13.70;;;;;;;;;;5025685;28;20042;-70
2023/12/02 05:45:35;;;;;;;28.02;14.95;;;;;;;;;;5021683;28;20042;-71
2023/12/02 05:48:02;;;;;;;25.08;12.93;;;;;;;;;;5021305;28;20038;-71
2023/12/02 05:50:28;;;;;;;27.10;13.00;;;;;;;;;;5015782;28;20041;-70
2023/12/02 05:52:54;;;;;;;26.58;13.20;;;;;;;;;;5031570;28;20433;-70
2023/12/02 05:55:20;;;;;;;25.52;14.10;;;;;;;;;;4998712;28;20034;-70
2023/12/02 05:57:47;;;;;;;24.92;13.25;;;;;;;;;;5014998;28;20073;-70
2023/12/02 06:00:16;;;;;;;23.38;13.65;;;;;;;;;;5021835;28;20116;-70
2023/12/02 06:02:42;;;;;;;25.60;14.38;;;;;;;;;;4997590;28;20120;-70
2023/12/02 06:05:09;;;;;;;25.20;13.88;;;;;;;;;;5025920;28;20184;-70
2023/12/02 06:07:35;;;;;;;26.10;13.95;;;;;;;;;;5014792;28;20132;-70
2023/12/02 06:10:01;;;;;;;24.73;13.20;;;;;;;;;;5013893;28;20469;-71
2023/12/02 06:12:27;;;;;;;25.30;14.32;;;;;;;;;;4997187;28;20033;-70
2023/12/02 06:14:53;;;;;;;23.45;13.88;;;;;;;;;;5023814;28;20042;-70
2023/12/02 06:17:19;;;;;;;28.65;14.23;;;;;;;;;;5016050;28;20359;-71
2023/12/02 06:19:45;;;;;;;23.83;13.40;;;;;;;;;;4997566;28;20037;-70
2023/12/02 06:22:11;;;;;;;25.10;13.95;;;;;;;;;;4997210;28;20049;-70
2023/12/02 06:24:37;;;;;;;24.30;12.90;;;;;;;;;;5023532;28;20501;-70
2023/12/02 06:27:04;;;;;;;24.77;13.48;;;;;;;;;;4995767;28;20037;-71
2023/12/02 06:29:30;;;;;;;30.20;14.43;;;;;;;;;;5021275;28;20037;-71
2023/12/02 06:31:56;;;;;;;24.92;13.90;;;;;;;;;;5013408;28;20041;-71
2023/12/02 06:34:22;;;;;;;27.33;14.38;;;;;;;;;;5016057;28;20120;-71
2023/12/02 06:36:48;;;;;;;22.80;12.93;;;;;;;;;;5029278;28;20041;-70
2023/12/02 06:39:14;;;;;;;25.55;13.50;;;;;;;;;;5020653;28;20096;-71
2023/12/02 06:41:44;;;;;;;26.67;13.93;;;;;;;;;;4980709;28;20104;-70
2023/12/02 06:44:10;;;;;;;26.55;13.75;;;;;;;;;;5003229;28;20048;-71
2023/12/02 06:46:36;;;;;;;25.55;13.43;;;;;;;;;;5020492;28;20053;-70
2023/12/02 06:49:02;;;;;;;27.23;14.05;;;;;;;;;;5019071;28;20034;-71
2023/12/02 06:51:29;;;;;;;25.88;13.10;;;;;;;;;;5001841;28;20038;-71
2023/12/02 06:53:58;;;;;;;27.58;13.63;;;0.80;99.90;;;;;;5011080;28;20077;-71
2023/12/02 06:56:25;;;;;;;23.20;12.98;;;0.90;99.90;;;;;;5002572;28;20120;-70
2023/12/02 06:58:52;;;;;;;23.52;13.52;;;;;;;;;;5023122;28;20049;-71
2023/12/02 07:01:28;;;;;;;23.02;13.32;;;;;;;;;;5020767;28;20451;-71
2023/12/02 07:03:55;;;;;;;21.65;12.23;;;;;;;;;;5015540;28;20125;-71
2023/12/02 07:06:21;;;;;;;21.08;13.10;;;;;;;;;;5018522;28;20528;-71
2023/12/02 07:08:51;;;;;;;22.45;12.65;;;;;;;;;;5024703;28;20063;-71
2023/12/02 07:11:17;;;;;;;20.73;11.77;;;;;;;;;;5017868;28;20498;-69
2023/12/02 07:13:43;;;;;;;22.58;12.90;;;;;;;;;;5001685;28;20030;-69
2023/12/02 07:16:10;;;;;;;22.98;12.38;;;;;;;;;;5015487;28;20042;-70
2023/12/02 07:18:36;;;;;;;21.70;12.73;;;;;;;;;;5023672;28;20052;-70
2023/12/02 07:21:02;;;;;;;22.58;11.85;;;;;;;;;;5018964;28;20033;-71
2023/12/02 07:23:31;;;;;;;22.38;13.13;;;;;;;;;;5003857;28;20431;-70
2023/12/02 07:25:57;;;;;;;25.52;13.10;;;0.80;99.90;;;;;;4997502;28;20489;-70
2023/12/02 07:28:24;;;;;;;22.55;13.43;;;;;;;;;;5016813;28;20045;-70
2023/12/02 07:30:50;;;;;;;29.40;13.63;;;;;;;;;;5018764;28;20128;-70
2023/12/02 07:33:17;;;;;;;22.73;12.52;;;;;;;;;;4999935;28;20038;-70
2023/12/02 07:35:43;;;;;;;29.10;13.00;;;;;;;;;;5001711;28;20045;-70
2023/12/02 07:38:09;;;;;;;20.08;12.13;;;;;;;;;;5016478;28;20347;-71
2023/12/02 07:40:35;;;;;;;24.70;13.32;;;;;;;;;;5014635;28;20045;-70
2023/12/02 07:43:02;;;;;;;24.88;12.68;;;;;;;;;;4988376;28;20038;-70
2023/12/02 07:45:28;;;;;;;21.98;12.35;;;;;;;;;;5000402;28;20427;-70
2023/12/02 07:47:54;;;;;;;23.23;12.23;;;;;;;;;;5018846;28;20037;-70
2023/12/02 07:50:20;;;;;;;23.88;12.35;;;;;;;;;;5001742;28;20077;-70
2023/12/02 07:52:46;;;;;;;22.02;12.25;;;;;;;;;;4985231;28;20386;-70
2023/12/02 07:55:13;;;;;;;19.00;11.55;;;;;;;;;;5021736;28;20065;-70
2023/12/02 07:57:39;;;;;;;20.98;11.10;;;;;;;;;;5016418;28;20451;-70
2023/12/02 08:00:11;;;;;;;26.23;12.00;;;;;;;;;;5020881;28;20084;-70
2023/12/02 08:02:37;;;;;;;19.77;10.27;;;;;;;;;;5031240;28;20046;-70
2023/12/02 08:05:03;;;;;;;18.20;9.82;;;;;;;;;;5031466;28;20533;-70
2023/12/02 08:07:30;;;;;;;19.33;11.00;;;;;;;;;;5023902;28;20038;-70
2023/12/02 08:09:56;;;;;;;19.08;10.38;;;;;;;;;;5011910;28;20042;-70
2023/12/02 08:12:22;;;;;;;19.02;10.27;;;;;;;;;;5021954;28;20033;-70
2023/12/02 08:14:48;;;;;;;17.30;9.68;;;;;;;;;;5031377;28;20486;-70
2023/12/02 08:17:14;;;;;;;17.42;8.63;;;;;;;;;;5014741;28;20048;-70
2023/12/02 08:19:40;;;;;;;17.95;9.55;;;;;;;;;;5014834;28;20570;-70
2023/12/02 08:22:06;;;;;;;17.40;8.98;;;;;;;;;;5013253;28;20049;-70
2023/12/02 08:24:32;;;;;;;18.23;8.98;;;;;;;;;;5001739;28;20082;-70
2023/12/02 08:26:59;;;;;;;14.70;8.10;;;;;;;;;;5011826;28;20520;-70
2023/12/02 08:29:25;;;;;;;16.77;9.48;;;;;;;;;;5000554;28;20386;-69
2023/12/02 08:31:51;;;;;;;17.52;8.93;;;;;;;;;;5031577;28;20060;-69
2023/12/02 08:34:17;;;;;;;17.70;8.82;;;;;;;;;;5028465;28;20037;-70
2023/12/02 08:36:44;;;;;;;19.25;9.27;;;;;;;;;;5014696;28;20112;-70
2023/12/02 08:39:10;;;;;;;18.73;8.73;;;;;;;;;;5030946;28;20085;-70
2023/12/02 08:41:36;;;;;;;17.42;8.15;;;;;;;;;;5031179;28;20037;-70
2023/12/02 08:44:03;;;;;;;18.08;8.80;;;;;;;;;;5014958;28;20041;-70
2023/12/02 08:46:29;;;;;;;13.00;7.68;;;;;;;;;;5030910;28;20038;-70
2023/12/02 08:48:55;;;;;;;14.05;8.05;;;;;;;;;;5031109;28;20053;-70
2023/12/02 08:51:21;;;;;;;14.95;8.40;;;;;;;;;;5012593;28;20498;-70
2023/12/02 08:53:51;;;;;;;13.55;7.68;;;1.30;99.90;;;;;;5015165;28;20044;-70
2023/12/02 08:56:17;;;;;;;12.55;6.88;;;;;;;;;;4998850;28;20033;-69
2023/12/02 08:58:43;;;;;;;11.63;6.97;;;;;;;;;;5014837;28;20045;-70
2023/12/02 09:01:10;;;;;;;10.98;6.63;;;;;;;;;;5025253;28;20510;-70
2023/12/02 09:03:36;;;;;;;13.13;6.43;;;;;;;;;;5034824;28;20375;-69
2023/12/02 09:06:03;;;;;;;10.75;6.53;;;;;;;;;;5017209;28;20110;-71
2023/12/02 09:08:29;;;;;;;12.65;6.45;;;;;;;;;;5027748;28;20046;-70
2023/12/02 09:10:55;;;;;;;10.43;6.63;;;;;;;;;;5030550;28;20045;-70
2023/12/02 09:13:40;;;;;;;10.95;6.18;;;1.80;99.90;;;;;;5022742;28;20436;-69
2023/12/02 09:16:15;;;;;;;10.15;5.65;;;;;;;;;;5014529;28;20075;-69
2023/12/02 09:18:41;;;;;;;8.95;5.75;;;;;;;;;;5034063;28;20119;-69
2023/12/02 09:21:26;;;;;;;11.40;5.53;;;;;;;;;;5017317;28;20092;-69
2023/12/02 09:23:52;;;;;;;11.50;5.30;;;;;;;;;;5033950;28;20048;-69
2023/12/02 09:26:29;;;;;;;12.45;5.68;;;2.00;99.90;;;;;;5033943;28;20045;-69
2023/12/02 09:28:56;;;;;;;8.20;5.43;;;;;;;;;;5033707;28;20072;-70
2023/12/02 09:31:22;;;;;;;16.20;5.97;;;;;;;;;;5022123;28;20378;-70
2023/12/02 09:33:57;;;;;;;7.82;4.72;;;2.10;99.90;;;;;;5033786;28;20116;-70
2023/12/02 09:36:32;;;;;;;10.43;5.47;;;;;;;;;;5033672;28;20038;-70
2023/12/02 09:39:04;;;;;;;7.38;3.95;;;;;;;;;;5017165;28;20485;-70
2023/12/02 09:41:38;;;;;;;5.97;4.38;;;2.20;99.90;;;;;;5017586;28;20053;-71
2023/12/02 09:44:11;;;;;;;9.20;4.18;;;2.40;99.90;;;;;;5033697;28;20495;-71
2023/12/02 09:46:51;;;;;;;6.45;3.72;;;2.30;99.90;;;;;;5033954;28;20468;-71
2023/12/02 09:49:21;;;;;;;5.22;3.47;;;;;;;;;;5033819;28;20052;-71
2023/12/02 09:51:53;;;;;;;6.25;3.92;;;;;;;;;;5033675;28;20102;-71
2023/12/02 09:54:24;;;;;;;6.20;3.58;;;;;;;;;;5032899;28;20401;-70
2023/12/02 09:56:56;;;;;;;7.88;3.60;;;2.50;99.90;;;;;;5033501;28;20044;-71
2023/12/02 09:59:28;;;;;;;6.70;3.70;;;2.50;99.90;;;;;;5033433;28;20052;-71
2023/12/02 10:02:07;;;;;;;5.13;3.70;;;2.60;99.90;;;;;;5032077;28;20045;-71
2023/12/02 10:04:48;;;;;;;4.93;3.55;;;;;;;;;;5028798;28;20049;-71
2023/12/02 10:07:34;;;;;;;5.57;3.70;;;2.70;99.90;;;;;;5029956;28;20117;-71
2023/12/02 10:10:10;;;;;;;10.68;3.80;;;;;;;;;;5028885;28;20041;-71
2023/12/02 10:12:42;;;;;;;6.20;3.67;;;;;;;;;;5031151;28;20156;-71
2023/12/02 10:15:10;;;;;;;4.22;3.30;;;;;;;;;;5020579;28;20147;-71
2023/12/02 10:17:43;;;;;;;4.72;3.00;;;2.80;99.90;;;;;;5021792;28;20053;-71
2023/12/02 10:20:11;;;;;;;6.65;2.85;;;;;;;;;;5014679;28;20120;-71
2023/12/02 10:22:50;;;;;;;6.63;3.05;;;2.70;99.90;;;;;;5031155;28;20139;-71
2023/12/02 10:25:32;;;;;;;4.75;2.92;;;;;;;;;;5030476;28;20389;-70
2023/12/02 10:28:02;;;;;;;7.65;3.33;;;;;;;;;;5027032;28;20037;-70
2023/12/02 10:30:29;;;;;;;5.25;3.28;;;;;;;;;;5031444;28;20038;-70
2023/12/02 10:33:27;;;;;;;4.50;2.97;;;3.00;99.90;;;;;;5032870;28;20442;-70
2023/12/02 10:36:00;;;;;;;8.23;3.40;;;;;;;;;;5013811;28;20539;-70
2023/12/02 10:38:28;;;;;;;4.88;3.17;;;;;;;;;;5047557;28;20065;-70
2023/12/02 10:41:05;;;;;;;7.18;3.10;;;;;;;;;;5031678;28;20464;-71
2023/12/02 10:43:37;;;;;;;4.97;2.70;;;;;;;;;;5031978;28;20038;-71
2023/12/02 10:46:03;;;;;;;3.13;2.75;;;;;;;;;;5032428;28;20493;-70
2023/12/02 10:48:29;;;;;;;4.35;2.95;;;;;;;;;;5032473;28;20049;-70
2023/12/02 10:50:56;;;;;;;5.20;3.00;;;;;;;;;;5032316;28;20378;-70
2023/12/02 10:53:23;;;;;;;6.32;2.80;;;;;;;;;;5015940;28;20130;-70
2023/12/02 10:55:57;;;;;;;4.22;2.85;;;2.90;99.90;;;;;;5015753;28;20038;-70
2023/12/02 10:58:25;;;;;;;3.45;2.55;;;2.90;99.90;;;;;;5015889;28;20052;-70
2023/12/02 11:00:59;;;;;;;3.60;2.60;;;2.80;99.90;;;;;;5032041;28;21089;-70
2023/12/02 11:03:28;;;;;;;3.60;2.85;;;;;;;;;;5016137;28;20144;-71
2023/12/02 11:06:05;;;;;;;4.47;2.60;;;;;;;;;;5000408;28;20482;-71
2023/12/02 11:08:49;;;;;;;8.88;3.92;;;;;;;;;;5013709;28;20045;-70
2023/12/02 11:11:21;;;;;;;4.57;3.03;;;;;;;;;;5010997;28;20363;-71
2023/12/02 11:13:48;;;;;;;4.82;3.28;;;;;;;;;;5029310;28;20030;-70
2023/12/02 11:16:20;;;;;;;4.72;2.95;;;;;;;;;;5026884;28;20069;-69
2023/12/02 11:19:05;;;;;;;7.72;3.40;;;;;;;;;;4999448;28;20137;-70
2023/12/02 11:21:34;;;;;;;4.05;2.95;;;;;;;;;;5002579;28;20045;-70
2023/12/02 11:24:23;;;;;;;4.30;3.00;;;;;;;;;;5015893;28;20080;-72
2023/12/02 11:26:56;;;;;;;4.53;3.20;;;;;;;;;;5018714;28;20033;-70
2023/12/02 11:29:25;;;;;;;3.50;2.88;;;;;;;;;;5026651;28;20133;-70
2023/12/02 11:32:09;;;;;;;5.45;2.83;;;;;;;;;;5030962;28;20041;-70
2023/12/02 11:34:38;;;;;;;9.52;3.40;;;;;;;;;;5031193;28;20042;-70
2023/12/02 11:37:23;;;;;;;5.93;3.22;;;;;;;;;;5031656;28;20096;-70
2023/12/02 11:39:52;;;;;;;5.15;3.50;;;;;;;;;;5030594;28;20063;-70
2023/12/02 11:42:18;;;;;;;5.65;3.33;;;;;;;;;;5015181;28;20052;-70
2023/12/02 11:44:44;;;;;;;9.73;3.38;;;;;;;;;;5031644;28;20033;-70
2023/12/02 11:47:10;;;;;;;5.38;3.40;;;;;;;;;;5031427;28;20045;-70
2023/12/02 11:49:48;;;;;;;5.40;3.03;;;;;;;;;;5031595;28;20069;-70
2023/12/02 11:52:31;;;;;;;4.97;3.30;;;;;;;;;;5015221;28;20478;-70
2023/12/02 11:55:00;;;;;;;4.85;3.13;;;;;;;;;;5031533;28;20045;-70
2023/12/02 11:57:29;;;;;;;6.72;3.88;;;;;;;;;;5031752;28;20406;-70
2023/12/02 12:00:02;;;;;;;7.53;3.22;;;;;;;;;;5015327;28;20103;-70
2023/12/02 12:02:37;;;;;;;4.97;3.30;;;;;;;;;;5031532;28;20347;-70
2023/12/02 12:05:06;;;;;;;6.35;3.30;;;;;;;;;;5031367;28;20050;-70
2023/12/02 12:07:47;;;;;;;5.13;3.72;;;3.10;99.90;;;;;;5031377;28;20046;-70
2023/12/02 12:10:16;;;;;;;6.43;3.80;;;;;;;;;;5031217;28;20397;-70
2023/12/02 12:12:43;;;;;;;5.32;3.63;;;;;;;;;;5031395;28;20038;-70
2023/12/02 12:15:09;;;;;;;5.32;3.63;;;;;;;;;;5031320;28;20040;-70
2023/12/02 12:17:36;;;;;;;4.30;3.65;;;;;;;;;;5031539;28;20045;-70
2023/12/02 12:20:21;;;;;;;8.18;3.70;;;3.00;99.90;;;;;;5031349;28;20091;-71
2023/12/02 12:22:48;;;;;;;6.88;3.58;;;;;;;;;;5031098;28;20183;-70
2023/12/02 12:25:14;;;;;;;6.72;3.95;;;;;;;;;;5016493;28;20045;-70
2023/12/02 12:27:40;;;;;;;6.75;4.15;;;;;;;;;;5018511;28;20046;-70
2023/12/02 12:30:07;;;;;;;7.72;3.90;;;;;;;;;;5034928;28;20069;-71
2023/12/02 12:32:33;;;;;;;7.32;4.10;;;;;;;;;;5035084;28;20037;-70
2023/12/02 12:34:59;;;;;;;6.20;3.58;;;;;;;;;;5035102;28;20048;-70
2023/12/02 12:37:25;;;;;;;7.07;3.33;;;;;;;;;;5034998;28;20045;-70
2023/12/02 12:39:51;;;;;;;7.53;3.60;;;;;;;;;;5034695;28;20058;-70
2023/12/02 12:42:18;;;;;;;7.53;3.40;;;3.30;99.90;;;;;;5034830;28;20527;-70
2023/12/02 12:44:44;;;;;;;9.63;3.80;;;;;;;;;;5034845;28;20045;-70
2023/12/02 12:47:11;;;;;;;6.93;3.95;;;;;;;;;;5018456;28;20060;-70
2023/12/02 12:49:42;;;;;;;5.78;3.95;;;;;;;;;;5034779;28;20037;-70
2023/12/02 12:52:08;;;;;;;9.02;4.00;;;;;;;;;;5034707;28;20044;-70
2023/12/02 12:54:37;;;;;;;7.72;4.32;;;;;;;;;;5034657;28;20121;-70
2023/12/02 12:57:14;;;;;;;7.10;4.32;;;3.30;99.90;;;;;;5034903;28;20738;-70
2023/12/02 12:59:43;;;;;;;5.88;3.95;;;;;;;;;;5018094;28;20436;-70
2023/12/02 13:02:36;;;;;;;5.90;3.85;;;;;;;;;;5034915;28;20038;-70
2023/12/02 13:05:09;;;;;;;6.20;3.60;;;;;;;;;;5018376;28;20041;-70
2023/12/02 13:07:54;;;;;;;7.32;3.67;;;;;;;;;;5018029;28;20086;-70
2023/12/02 13:10:20;;;;;;;7.50;4.18;;;;;;;;;;5034343;28;20555;-71
2023/12/02 13:12:48;;;;;;;6.22;3.63;;;;;;;;;;5018235;28;20091;-70
2023/12/02 13:15:19;;;;;;;5.22;3.90;;;3.20;99.90;;;;;;5017967;28;20128;-70
2023/12/02 13:17:47;;;;;;;9.27;4.32;;;;;;;;;;5034389;28;20045;-70
2023/12/02 13:20:16;;;;;;;8.40;3.88;;;;;;;;;;5034151;28;20048;-70
2023/12/02 13:22:45;;;;;;;8.88;4.38;;;3.30;99.90;;;;;;5034233;28;20486;-70
2023/12/02 13:25:17;;;;;;;8.15;4.00;;;;;;;;;;5035146;28;20448;-70
2023/12/02 13:27:43;;;;;;;5.28;4.15;;;;;;;;;;5033998;28;20512;-70
2023/12/02 13:30:09;;;;;;;8.18;3.90;;;;;;;;;;5033940;28;20421;-70
2023/12/02 13:32:39;;;;;;;6.63;4.10;;;;;;;;;;5034209;28;20041;-70
2023/12/02 13:35:10;;;;;;;4.90;4.00;;;3.60;99.90;;;;;;5017741;28;20104;-70
2023/12/02 13:37:39;;;;;;;6.35;3.50;;;;;;;;;;5016548;28;20046;-70
2023/12/02 13:40:08;;;;;;;8.27;3.55;;;3.60;99.90;;;;;;5017636;28;20045;-70
2023/12/02 13:42:40;;;;;;;5.60;3.80;;;3.50;99.90;;;;;;5033787;28;20045;-70
2023/12/02 13:45:09;;;;;;;5.45;2.97;;;;;;;;;;5017474;28;20397;-70
2023/12/02 13:47:38;;;;;;;5.22;3.28;;;;;;;;;;5017207;28;20375;-70
2023/12/02 13:50:05;;;;;;;4.47;3.47;;;;;;;;;;5033801;28;20489;-70
2023/12/02 13:52:53;;;;;;;3.78;3.22;;;4.20;99.90;;;;;;5001010;28;20112;-70
2023/12/02 13:55:44;;;;;;;6.18;3.00;;;4.50;99.90;;;;;;5033847;28;20077;-70
2023/12/02 13:58:20;;;;;;;5.28;2.88;;;4.40;99.90;;;;;;5033758;28;20041;-70
2023/12/02 14:01:03;;;;;;;5.63;2.90;;;4.50;99.90;;;;;;5033587;28;20045;-70
2023/12/02 14:03:38;;;;;;;5.13;3.20;;;;;;;;;;5033420;28;20498;-70
2023/12/02 14:06:08;;;;;;;3.42;2.40;;;;;;;;;;5016831;28;20521;-70
2023/12/02 14:08:36;;;;;;;5.53;2.42;;;4.70;99.90;;;;;;5033339;28;20489;-70
2023/12/02 14:11:07;;;;;;;2.67;2.38;;;;;;;;;;5033587;28;20456;-70
2023/12/02 14:13:59;;;;;;;4.22;2.55;;;;;;;;;;5033664;28;20068;-70
2023/12/02 14:16:41;;;;;;;3.77;2.30;;;;;;;;;;5033138;28;20087;-70
2023/12/02 14:19:07;;;;;;;2.30;2.10;;;;;;;;;;5015777;28;20056;-70
2023/12/02 14:21:52;;;;;;;2.42;2.00;;;;;;;;;;5033053;28;20045;-70